Archival Weather

Chicago O'Hare International

Chicago, Illinois (KORD)

Report from: Thursday, May 11, 2023 9:51 PM CDT
Current time: Sunday, February 25, 2024 3:33 PM CST

Current weather – Weather history – Daily summaries
Weather forecast

Temperature20.0°C (68.0°F)
Dew point5.6°C (42.1°F)
Winds 5 kts (2.6 m/s, 5.8 mph) East (100°)
Visibility10 mi. (16.1 km)
Clouds Scattered clouds 15,000 ft. (4,572 m)
Ceiling: Broken clouds 19,000 ft. (5,791 m)
Overcast 25,000 ft. (7,620 m)
Altimeter30.02 in.Hg (1017 mB)
Relative humidity39 %
Density altitude620 ft. (189 m)
Sea-level pressure101.6 kPa (1016 mB, 30.01 in.Hg)
Remarks Automated weather observing station with precipitation discriminator
Pressure rising more slowly
Flight conditions Visual Meteorological Conditions
Raw dataKORD 120251Z 10005KT 10SM SCT150 BKN190 OVC250 20/06 A3002 RMK AO2 SLP162 T02000056 51006
An error has occurred. This application may no longer respond until reloaded. Reload 🗙